Time;durP1;ratioP1;P1;durP2;ratioP2;P2;SDS_P1;SDS_P2;PMS_P1;PMS_P2;Temp;Humidity;BMP_temperature;BMP_pressure;BME280_temperature;BME280_humidity;BME280_pressure;Samples;Min_cycle;Max_cycle;Signal;HPM_P1;HPM_P2
2022/09/23 11:21:48;;;;;;;12.00;4.80;;;;;;;15.28;68.87;101385.41;5110184;27;20316;-72
2022/09/23 11:24:40;;;;;;;9.60;4.82;;;;;;;15.32;68.63;101392.88;5110207;28;20382;-72
2022/09/23 11:27:16;;;;;;;8.70;4.80;;;;;;;15.39;69.58;101388.09;5096539;28;20038;-71
2022/09/23 11:29:53;;;;;;;14.13;4.90;;;;;;;15.42;67.88;101387.63;5110152;28;20443;-70
2022/09/23 11:32:45;;;;;;;8.68;4.30;;;;;;;15.41;66.32;101383.25;5110087;28;20020;-71
2022/09/23 11:35:27;;;;;;;8.07;4.55;;;;;;;15.47;66.71;101391.50;5102042;28;20573;-70
2022/09/23 11:38:20;;;;;;;8.55;4.38;;;;;;;15.51;65.92;101382.59;5103493;28;20023;-70
2022/09/23 11:40:53;;;;;;;8.70;4.30;;;;;;;15.55;66.20;101381.03;5104174;28;20023;-70
2022/09/23 11:43:24;;;;;;;11.13;4.78;;;;;;;15.61;65.77;101373.78;5130320;28;20023;-70
2022/09/23 11:45:57;;;;;;;10.27;4.97;;;;;;;15.66;64.87;101373.03;5105892;28;20069;-72
2022/09/23 11:48:26;;;;;;;7.68;4.25;;;;;;;15.75;65.86;101363.38;5094557;28;20092;-71
2022/09/23 11:51:05;;;;;;;9.77;4.30;;;;;;;15.81;64.10;101367.06;5097831;28;20016;-70
2022/09/23 11:53:41;;;;;;;8.38;3.95;;;;;;;15.85;65.54;101366.31;5108578;28;20467;-71
2022/09/23 11:56:27;;;;;;;7.90;4.00;;;;;;;15.97;62.58;101374.38;5104306;28;20036;-71
2022/09/23 11:59:42;;;;;;;16.38;3.83;;;;;;;16.05;64.83;101362.25;5120783;28;20029;-69
2022/09/23 12:02:28;;;;;;;6.90;3.10;;;;;;;16.20;63.42;101364.38;5107733;27;20495;-70
2022/09/23 12:05:02;;;;;;;8.90;3.35;;;;;;;16.22;60.83;101363.03;5107441;28;20069;-71
2022/09/23 12:07:38;;;;;;;8.07;3.85;;;;;;;16.24;60.79;101352.69;5099528;28;20067;-71
2022/09/23 12:10:06;;;;;;;7.18;3.28;;;;;;;16.26;61.47;101360.63;5112152;28;20008;-71
2022/09/23 12:12:47;;;;;;;7.82;3.08;;;;;;;16.25;62.60;101365.28;5091271;28;20027;-70
2022/09/23 12:15:31;;;;;;;7.53;3.40;;;;;;;16.23;62.42;101355.66;5105865;28;20019;-70
2022/09/23 12:18:00;;;;;;;5.43;3.28;;;;;;;16.21;61.24;101350.47;5108914;28;20016;-70
2022/09/23 12:20:33;;;;;;;11.15;3.28;;;;;;;16.21;61.13;101360.56;5107737;28;20378;-70
2022/09/23 12:23:13;;;;;;;7.82;3.25;;;;;;;16.21;61.60;101355.09;5104130;28;20024;-69
2022/09/23 12:25:51;;;;;;;6.07;3.22;;;;;;;16.19;61.04;101357.28;5086596;28;20089;-70
2022/09/23 12:28:32;;;;;;;11.00;3.20;;;;;;;16.18;61.79;101350.16;5086669;28;20455;-70
2022/09/23 12:31:00;;;;;;;8.93;2.95;;;;;;;16.18;60.38;101358.34;5100373;28;20470;-70
2022/09/23 12:33:28;;;;;;;4.40;3.20;;;;;;;16.15;60.34;101350.66;5095371;28;20447;-71
2022/09/23 12:36:03;;;;;;;6.70;3.08;;;;;;;16.16;61.66;101346.84;5094113;28;20103;-69
2022/09/23 12:38:50;;;;;;;7.18;3.10;;;;;;;16.19;62.16;101349.06;5095268;28;20016;-70
2022/09/23 12:41:37;;;;;;;6.70;3.28;;;;;;;16.19;62.49;101347.16;5094109;28;20070;-70
2022/09/23 12:44:14;;;;;;;7.25;3.40;;;;;;;16.23;62.55;101348.31;5087245;28;20020;-70
2022/09/23 12:46:42;;;;;;;6.75;3.00;;;;;;;16.22;61.63;101343.13;5081991;28;20016;-71
2022/09/23 12:49:40;;;;;;;5.72;3.30;;;;;;;16.26;63.66;101342.38;5095239;28;20024;-71
2022/09/23 12:52:15;;;;;;;7.38;3.25;;;;;;;16.27;63.13;101345.91;5075229;28;20044;-68
2022/09/23 12:54:55;;;;;;;7.47;3.42;;;;;;;16.28;61.76;101340.19;5073190;28;20031;-72
2022/09/23 12:57:32;;;;;;;8.57;4.07;;;;;;;16.28;61.94;101334.72;5073691;28;20020;-71
2022/09/23 13:00:25;;;;;;;10.90;4.43;;;;;;;16.29;62.40;101341.84;5072791;28;20028;-70
2022/09/23 13:08:41;;;;;;;8.50;4.30;;;;;;;16.32;63.53;101346.00;5086149;28;20039;-69
2022/09/23 13:11:30;;;;;;;8.50;4.40;;;;;;;16.33;63.49;101344.91;5093260;28;20024;-70
2022/09/23 13:14:02;;;;;;;7.28;4.78;;;;;;;16.29;63.26;101335.59;5088104;28;20430;-72
2022/09/23 13:16:34;;;;;;;9.07;4.70;;;;;;;16.29;62.99;101335.59;5093430;28;20020;-70
2022/09/23 13:19:00;;;;;;;12.00;5.78;;;;;;;16.30;64.96;101331.75;5093742;28;20020;-70
2022/09/23 13:21:44;;;;;;;10.88;5.10;;;;;;;16.35;63.85;101328.25;5094735;28;20066;-70
2022/09/23 13:24:22;;;;;;;9.45;4.82;;;;;;;16.35;63.56;101315.44;5094698;28;20034;-71
2022/09/23 13:27:10;;;;;;;11.48;4.75;;;;;;;16.44;64.50;101319.41;5092867;28;20478;-70
2022/09/23 13:29:41;;;;;;;12.05;4.63;;;;;;;16.44;63.97;101327.59;5082661;28;20023;-70
2022/09/23 13:32:11;;;;;;;8.83;4.70;;;;;;;16.48;63.76;101316.97;5092993;28;20028;-71
2022/09/23 13:34:38;;;;;;;11.45;4.68;;;;;;;16.46;62.28;101316.41;5094635;28;20030;-71
2022/09/23 13:37:16;;;;;;;8.73;4.43;;;;;;;16.41;63.02;101322.63;5092824;28;20025;-71
2022/09/23 13:39:41;;;;;;;10.73;4.47;;;;;;;16.39;64.73;101327.50;5094173;28;20016;-71
2022/09/23 13:42:15;;;;;;;10.18;4.13;;;;;;;16.39;63.73;101315.75;5092259;28;20031;-68
2022/09/23 13:44:40;;;;;;;10.00;4.30;;;;;;;16.36;64.62;101310.81;5088146;28;20024;-71
2022/09/23 13:47:12;;;;;;;7.32;4.38;;;;;;;16.35;65.86;101312.72;5072318;28;20021;-71
2022/09/23 13:49:39;;;;;;;11.85;4.40;;;;;;;16.34;64.93;101311.06;5073838;28;20021;-75
2022/09/23 13:52:04;;;;;;;14.95;5.40;;;;;;;16.30;65.33;101310.75;5071998;28;20020;-72
2022/09/23 13:54:47;;;;;;;7.20;4.30;;;;;;;16.31;66.36;101314.28;5071170;28;20082;-75
2022/09/23 13:57:30;;;;;;;9.13;3.83;;;;;;;16.33;67.05;101308.59;5084620;28;20493;-73
2022/09/23 14:00:17;;;;;;;7.50;4.50;;;;;;;16.34;67.45;101296.59;5074192;28;20466;-77
2022/09/23 14:02:44;;;;;;;7.25;4.20;;;;;;;16.30;67.97;101296.25;5071168;28;20029;-70
2022/09/23 14:05:11;;;;;;;8.88;4.63;;;;;;;16.32;67.81;101298.72;5072222;28;20021;-71
2022/09/23 14:07:36;;;;;;;9.52;5.03;;;;;;;16.30;68.50;101298.97;5071478;28;20466;-72
2022/09/23 14:10:04;;;;;;;8.77;4.70;;;;;;;16.27;68.85;101294.03;5072534;28;20163;-73
2022/09/23 14:12:30;;;;;;;11.07;5.18;;;;;;;16.26;69.27;101293.22;5076370;28;20097;-70
2022/09/23 14:14:56;;;;;;;9.82;4.90;;;;;;;16.24;70.30;101294.53;5083296;28;20421;-70
2022/09/23 14:17:22;;;;;;;12.30;4.85;;;;;;;16.22;71.27;101281.13;5073847;28;20024;-70
2022/09/23 14:19:48;;;;;;;13.25;5.20;;;;;;;16.23;71.49;101281.94;5072399;28;20047;-72
2022/09/23 14:22:22;;;;;;;12.77;5.45;;;;;;;16.21;71.60;101284.09;5073296;28;20114;-72
2022/09/23 14:24:48;;;;;;;9.77;4.82;;;;;;;16.17;71.50;101281.06;5073208;28;20025;-70
2022/09/23 14:27:21;;;;;;;8.95;5.18;;;;;;;16.19;72.22;101278.91;5073162;28;20032;-72
2022/09/23 14:29:48;;;;;;;9.38;4.72;;;;;;;16.18;73.06;101279.97;5072461;28;20050;-70
2022/09/23 14:32:23;;;;;;;11.40;4.97;;;;;;;16.18;72.85;101284.63;5073138;28;20055;-72
2022/09/23 14:34:50;;;;;;;9.25;4.90;;;;;;;16.17;74.22;101269.31;5077250;28;20052;-72
2022/09/23 14:40:13;;;;;;;8.07;4.90;;;;;;;16.17;75.25;101278.34;5072441;28;20124;-74
2022/09/23 14:42:42;;;;;;;14.45;6.10;;;;;;;16.16;75.34;101276.69;5072950;28;20079;-73
2022/09/23 14:45:13;;;;;;;10.55;5.55;;;;;;;16.13;76.06;101271.72;5072637;28;20032;-75
2022/09/23 14:47:44;;;;;;;10.85;5.35;;;;;;;16.12;77.31;101270.91;5072110;28;20107;-75
2022/09/23 14:50:35;;;;;;;10.73;5.93;;;;;;;16.13;77.87;101275.28;5078022;28;20031;-75
2022/09/23 14:53:02;;;;;;;16.65;6.03;;;;;;;16.09;77.43;101263.22;5092905;28;20103;-74
2022/09/23 14:55:29;;;;;;;9.82;5.82;;;;;;;16.07;76.89;101273.53;5092492;28;20024;-76
2022/09/23 14:58:03;;;;;;;13.73;5.85;;;;;;;16.05;76.25;101263.97;5091400;28;20474;-73
2022/09/23 15:00:30;;;;;;;13.70;5.70;;;;;;;16.02;77.58;101264.44;5076511;28;20029;-73
2022/09/23 15:03:11;;;;;;;12.50;5.78;;;;;;;15.99;77.49;101263.06;5071245;28;20032;-74
2022/09/23 15:05:41;;;;;;;8.25;4.85;;;;;;;15.97;78.54;101261.66;5077958;28;20145;-70
2022/09/23 15:08:10;;;;;;;12.82;5.28;;;;;;;15.94;81.09;101258.38;5090909;28;20024;-71
2022/09/23 15:10:38;;;;;;;12.63;5.68;;;;;;;15.90;90.28;101253.66;5086158;28;20485;-71
2022/09/23 15:13:12;;;;;;;12.75;5.35;;;;;;;15.92;85.95;101246.03;5091586;28;20455;-69
2022/09/23 15:15:37;;;;;;;13.15;5.80;;;;;;;15.90;82.71;101240.84;5092931;28;20046;-69
2022/09/23 15:18:14;;;;;;;13.40;5.15;;;;;;;15.89;88.81;101238.34;5092191;28;20443;-69
2022/09/23 15:20:40;;;;;;;10.52;5.18;;;;;;;15.88;94.54;101243.00;5082208;28;20041;-69
2022/09/23 15:23:05;;;;;;;12.88;5.65;;;;;;;15.86;98.83;101249.78;5085630;28;20080;-69
2022/09/23 15:25:34;;;;;;;10.15;5.85;;;;;;;15.83;97.10;101244.81;5079391;28;20063;-69
2022/09/23 15:28:03;;;;;;;10.13;5.72;;;;;;;15.77;94.85;101247.47;5072239;28;20360;-69
2022/09/23 15:30:30;;;;;;;13.27;6.28;;;;;;;15.74;97.47;101245.19;5076452;28;20024;-70
2022/09/23 15:32:55;;;;;;;11.00;5.88;;;;;;;15.73;100.00;101249.03;5087541;28;20048;-70
2022/09/23 15:35:25;;;;;;;10.90;5.93;;;;;;;15.71;100.00;101248.44;5083616;28;20124;-70
2022/09/23 15:37:53;;;;;;;12.18;6.15;;;;;;;15.69;100.00;101255.22;5073647;28;20059;-71
2022/09/23 15:40:23;;;;;;;11.63;6.28;;;;;;;15.68;100.00;101254.38;5072233;28;20028;-69
2022/09/23 15:42:51;;;;;;;10.43;6.38;;;;;;;15.66;100.00;101251.09;5070850;28;20024;-69
2022/09/23 15:45:20;;;;;;;13.32;6.07;;;;;;;15.64;100.00;101250.53;5072122;28;20111;-69
2022/09/23 15:47:48;;;;;;;14.00;7.15;;;;;;;15.64;100.00;101253.25;5071834;28;20028;-69
2022/09/23 15:50:13;;;;;;;14.07;6.68;;;;;;;15.61;100.00;101240.13;5070691;28;20025;-70
2022/09/23 15:52:41;;;;;;;11.18;6.43;;;;;;;15.58;100.00;101246.88;5071862;28;20037;-69
2022/09/23 15:55:23;;;;;;;11.20;6.22;;;;;;;15.61;100.00;101242.84;5070752;28;20077;-69
2022/09/23 15:57:49;;;;;;;10.77;6.60;;;;;;;15.60;100.00;101241.19;5072227;28;20277;-69
2022/09/23 16:00:15;;;;;;;10.32;6.15;;;;;;;15.56;100.00;101245.47;5070568;28;20021;-69
2022/09/23 16:02:45;;;;;;;12.88;6.05;;;;;;;15.54;100.00;101236.72;5069157;28;20523;-69
2022/09/23 16:05:22;;;;;;;15.05;6.90;;;;;;;15.54;100.00;101236.72;5070317;28;20047;-68
2022/09/23 16:07:51;;;;;;;11.25;5.95;;;;;;;15.50;100.00;101238.28;5075160;28;20051;-69
2022/09/23 16:10:20;;;;;;;14.85;6.22;;;;;;;15.50;100.00;101241.81;5075438;28;20107;-69
2022/09/23 16:12:47;;;;;;;13.02;6.95;;;;;;;15.49;100.00;101233.91;5075781;28;20024;-69
2022/09/23 16:15:16;;;;;;;10.15;6.25;;;;;;;15.47;100.00;101231.41;5074118;28;20028;-69
2022/09/23 16:17:43;;;;;;;15.48;6.50;;;;;;;15.46;100.00;101223.47;5090024;28;20081;-70
2022/09/23 16:20:09;;;;;;;14.35;7.47;;;;;;;15.47;100.00;101219.69;5082358;28;20044;-70
2022/09/23 16:22:35;;;;;;;14.00;7.22;;;;;;;15.46;100.00;101221.59;5080131;28;20034;-70
2022/09/23 16:25:00;;;;;;;14.32;6.55;;;;;;;15.46;100.00;101223.47;5095622;28;20028;-70
2022/09/23 16:27:26;;;;;;;12.60;6.60;;;;;;;15.44;100.00;101228.38;5077092;28;20082;-72
2022/09/23 16:29:51;;;;;;;11.55;6.88;;;;;;;15.41;100.00;101222.34;5075182;28;20119;-72
2022/09/23 16:32:16;;;;;;;11.02;6.78;;;;;;;15.38;100.00;101217.41;5075184;28;20028;-71
2022/09/23 16:34:42;;;;;;;12.18;7.28;;;;;;;15.36;100.00;101207.81;5074829;28;20074;-70
2022/09/23 16:37:12;;;;;;;11.20;7.03;;;;;;;15.35;100.00;101211.59;5075135;28;20028;-70
2022/09/23 16:39:38;;;;;;;10.07;7.07;;;;;;;15.33;100.00;101211.84;5075178;28;20495;-69
2022/09/23 16:42:03;;;;;;;12.65;7.90;;;;;;;15.31;100.00;101214.00;5093784;28;20123;-70
2022/09/23 16:44:30;;;;;;;15.75;8.32;;;;;;;15.27;100.00;101207.38;5094520;28;20028;-69
2022/09/23 16:46:56;;;;;;;14.15;8.48;;;;;;;15.25;100.00;101212.28;5095134;28;20028;-70
2022/09/23 16:49:21;;;;;;;20.55;9.90;;;;;;;15.25;100.00;101212.28;5086509;28;20024;-72
2022/09/23 16:51:47;;;;;;;16.88;9.70;;;;;;;15.23;100.00;101208.94;5084704;28;20027;-70
2022/09/23 16:54:12;;;;;;;16.45;9.43;;;;;;;15.20;100.00;101210.28;5092719;28;20115;-69
2022/09/23 16:56:43;;;;;;;15.95;9.60;;;;;;;15.20;100.00;101209.44;5093709;28;20028;-70
2022/09/23 16:59:10;;;;;;;15.57;9.18;;;;;;;15.20;100.00;101212.16;5094628;28;20356;-70
2022/09/23 17:04:21;;;;;;;19.85;10.40;;;;;;;15.16;100.00;101213.75;5082751;28;20090;-71
2022/09/23 17:06:49;;;;;;;16.55;9.05;;;;;;;15.14;100.00;101224.06;5074840;28;20051;-71
2022/09/23 17:09:19;;;;;;;17.67;8.52;;;;;;;15.10;100.00;101212.84;5074318;28;20020;-69
2022/09/23 17:11:47;;;;;;;14.07;8.40;;;;;;;15.10;100.00;101220.16;5074418;28;20412;-69
2022/09/23 17:14:14;;;;;;;16.85;8.88;;;;;;;15.11;100.00;101219.91;5092363;28;20032;-70
2022/09/23 17:16:39;;;;;;;18.67;8.82;;;;;;;15.10;100.00;101222.88;5089491;28;20028;-70
2022/09/23 17:19:06;;;;;;;18.75;8.13;;;;;;;15.09;100.00;101223.97;5071815;28;20372;-77
2022/09/23 17:21:31;;;;;;;12.75;8.32;;;;;;;15.07;100.00;101219.59;5090983;28;20106;-72
2022/09/23 17:23:57;;;;;;;16.83;8.85;;;;;;;15.05;100.00;101218.19;5094785;28;20111;-73
2022/09/23 17:26:24;;;;;;;18.17;8.32;;;;;;;15.02;100.00;101214.06;5094723;28;20028;-72
2022/09/23 17:28:51;;;;;;;13.35;7.35;;;;;;;15.00;100.00;101213.47;5093330;28;20016;-76
2022/09/23 17:31:17;;;;;;;17.23;7.55;;;;;;;15.01;100.00;101211.59;5093029;28;20028;-74
2022/09/23 17:33:42;;;;;;;13.65;7.70;;;;;;;14.99;100.00;101211.84;5086878;28;20036;-70
2022/09/23 17:36:10;;;;;;;13.20;6.97;;;;;;;14.95;100.00;101213.38;5079870;28;20024;-72
2022/09/23 17:38:38;;;;;;;17.38;7.40;;;;;;;14.95;100.00;101221.56;5094206;28;20028;-72
2022/09/23 17:41:04;;;;;;;13.32;6.65;;;;;;;14.94;100.00;101217.19;5094109;28;20367;-70
2022/09/23 17:43:30;;;;;;;13.70;6.50;;;;;;;14.88;100.00;101216.25;5091413;28;20480;-70
2022/09/23 17:46:03;;;;;;;11.40;6.65;;;;;;;14.86;100.00;101215.69;5092692;28;20115;-70
2022/09/23 17:48:31;;;;;;;13.68;6.85;;;;;;;14.87;100.00;101211.91;5093961;28;20035;-71
2022/09/23 17:50:58;;;;;;;11.20;6.10;;;;;;;14.87;100.00;101216.50;5085656;28;20023;-70
2022/09/23 17:53:24;;;;;;;17.13;6.85;;;;;;;14.82;100.00;101213.69;5089246;28;20028;-70
2022/09/23 17:55:57;;;;;;;11.60;6.15;;;;;;;14.80;100.00;101210.41;5093554;28;20024;-70
2022/09/23 17:58:25;;;;;;;14.25;6.85;;;;;;;14.81;100.00;101218.31;5086410;28;20043;-73
2022/09/23 18:00:50;;;;;;;18.63;7.35;;;;;;;14.82;100.00;101219.13;5074926;28;20024;-73
2022/09/23 18:03:16;;;;;;;13.15;6.95;;;;;;;14.81;100.00;101217.47;5089698;28;20024;-72
2022/09/23 18:05:41;;;;;;;14.68;7.35;;;;;;;14.79;100.00;101225.91;5093749;28;20119;-75
2022/09/23 18:08:06;;;;;;;12.60;7.10;;;;;;;14.80;100.00;101215.84;5082667;28;20031;-73
2022/09/23 18:10:31;;;;;;;13.20;7.57;;;;;;;14.79;100.00;101212.28;5086584;28;20032;-75
2022/09/23 18:12:57;;;;;;;17.02;6.90;;;;;;;14.78;100.00;101217.97;5089630;28;20026;-72
2022/09/23 18:15:22;;;;;;;13.65;7.50;;;;;;;14.75;100.00;101216.56;5085155;28;20351;-73
2022/09/23 18:17:47;;;;;;;13.98;6.60;;;;;;;14.77;100.00;101217.16;5111230;28;20065;-72
2022/09/23 18:20:15;;;;;;;15.90;8.40;;;;;;;14.79;100.00;101214.19;5072843;28;20087;-72
2022/09/23 18:22:40;;;;;;;12.70;7.80;;;;;;;14.77;100.00;101219.06;5071587;28;20127;-72
2022/09/23 18:25:06;;;;;;;12.55;8.00;;;;;;;14.75;100.00;101218.44;5073294;28;20064;-71
2022/09/23 18:27:34;;;;;;;14.00;8.48;;;;;;;14.75;100.00;101223.91;5073242;28;20447;-71
2022/09/23 18:30:00;;;;;;;16.35;8.95;;;;;;;14.69;100.00;101221.09;5071672;28;20030;-73
2022/09/23 18:32:25;;;;;;;15.32;8.25;;;;;;;14.68;100.00;101222.16;5075446;28;20426;-73
2022/09/23 18:34:50;;;;;;;15.48;8.82;;;;;;;14.70;100.00;101221.91;5073084;28;20024;-73
2022/09/23 18:37:16;;;;;;;18.42;9.63;;;;;;;14.68;100.00;101230.31;5082183;28;20036;-75
2022/09/23 18:39:41;;;;;;;19.75;9.57;;;;;;;14.67;100.00;101227.84;5091744;28;20166;-71
2022/09/23 18:42:06;;;;;;;17.70;9.32;;;;;;;14.65;100.00;101235.44;5091552;28;20020;-72
2022/09/23 18:44:31;;;;;;;17.38;9.95;;;;;;;14.62;100.00;101231.31;5092109;28;20024;-72
2022/09/23 18:46:57;;;;;;;18.23;10.45;;;;;;;14.60;100.00;101236.16;5075767;28;20035;-72
2022/09/23 18:52:06;;;;;;;16.10;10.75;;;;;;;14.57;100.00;101242.06;5078929;28;20038;-73
2022/09/23 18:54:31;;;;;;;13.52;10.80;;;;;;;14.55;100.00;101246.91;5091089;28;20024;-72
2022/09/23 18:56:58;;;;;;;15.85;11.23;;;;;;;14.52;100.00;101236.50;5092974;28;20543;-72
2022/09/23 18:59:26;;;;;;;18.85;12.48;;;;;;;14.49;100.00;101237.00;5091154;28;20036;-73
2022/09/23 19:01:54;;;;;;;18.88;11.57;;;;;;;14.49;100.00;101240.56;5076078;28;20031;-75
2022/09/23 19:04:20;;;;;;;17.58;12.73;;;;;;;14.47;100.00;101247.31;5073668;28;20048;-72
2022/09/23 19:06:46;;;;;;;21.88;14.38;;;;;;;14.46;100.00;101249.22;5092898;28;20027;-72
2022/09/23 19:09:13;;;;;;;19.55;13.93;;;;;;;14.43;100.00;101244.25;5074786;28;20036;-73
2022/09/23 19:11:39;;;;;;;24.48;14.05;;;;;;;14.42;100.00;101244.47;5078616;28;20036;-72
2022/09/23 19:14:06;;;;;;;22.30;16.15;;;;;;;14.42;100.00;101242.59;5073622;28;20102;-72
2022/09/23 19:16:33;;;;;;;19.85;13.68;;;;;;;14.43;100.00;101240.69;5071201;28;20029;-73
2022/09/23 19:18:59;;;;;;;18.80;13.90;;;;;;;14.42;100.00;101241.75;5075739;28;20147;-74
2022/09/23 19:21:26;;;;;;;19.65;14.73;;;;;;;14.43;100.00;101235.25;5091458;28;20048;-74
2022/09/23 19:23:56;;;;;;;18.30;14.80;;;;;;;14.40;100.00;101236.53;5082525;28;20053;-74
2022/09/23 19:26:25;;;;;;;20.80;13.93;;;;;;;14.40;100.00;101241.16;5090210;28;20028;-72
2022/09/23 19:28:55;;;;;;;18.38;14.50;;;;;;;14.38;100.00;101246.03;5087773;28;20078;-74
2022/09/23 19:31:31;;;;;;;17.77;14.80;;;;;;;14.38;100.00;101243.31;5077928;28;20028;-74
2022/09/23 19:34:00;;;;;;;18.30;14.73;;;;;;;14.33;100.00;101246.75;5072430;28;20096;-73
2022/09/23 19:36:33;;;;;;;17.00;13.90;;;;;;;14.33;100.00;101244.03;5070558;28;20036;-73
2022/09/23 19:39:05;;;;;;;16.95;13.85;;;;;;;14.31;100.00;101244.28;5071074;28;20055;-77
2022/09/23 19:41:32;;;;;;;17.35;13.38;;;;;;;14.33;100.00;101244.84;5073355;28;20025;-73
2022/09/23 19:44:01;;;;;;;18.08;14.57;;;;;;;14.26;100.00;101244.16;5096031;28;20035;-72
2022/09/23 19:46:27;;;;;;;20.15;14.23;;;;;;;14.24;100.00;101237.31;5083931;28;20025;-73
2022/09/23 19:48:52;;;;;;;17.75;14.90;;;;;;;14.22;100.00;101243.00;5079106;28;20043;-72
2022/09/23 19:51:18;;;;;;;17.70;14.70;;;;;;;14.20;100.00;101242.41;5089705;28;20024;-74
2022/09/23 19:53:44;;;;;;;17.95;14.20;;;;;;;14.18;100.00;101241.81;5085249;28;20076;-72
2022/09/23 19:56:16;;;;;;;18.65;14.57;;;;;;;14.15;100.00;101245.03;5096196;28;20086;-73
2022/09/23 19:58:47;;;;;;;20.85;15.50;;;;;;;14.12;100.00;101240.88;5092014;28;20384;-73
2022/09/23 20:01:15;;;;;;;18.10;14.43;;;;;;;14.09;100.00;101237.81;5084077;28;20024;-72
2022/09/23 20:03:44;;;;;;;18.67;14.45;;;;;;;14.07;100.00;101237.22;5094976;28;20165;-74
2022/09/23 20:06:09;;;;;;;23.90;15.05;;;;;;;14.04;100.00;101230.38;5095846;28;20378;-74
2022/09/23 20:08:36;;;;;;;19.63;15.52;;;;;;;14.01;100.00;101225.41;5096264;28;20020;-74
2022/09/23 20:11:10;;;;;;;17.52;15.20;;;;;;;14.02;100.00;101226.22;5094943;28;20023;-75
2022/09/23 20:13:40;;;;;;;20.98;15.45;;;;;;;14.00;100.00;101224.56;5095764;28;20028;-73
2022/09/23 20:16:10;;;;;;;20.98;15.75;;;;;;;14.01;100.00;101230.84;5077782;28;20448;-71
2022/09/23 20:18:40;;;;;;;22.52;16.50;;;;;;;14.02;100.00;101223.50;5095932;28;20031;-73
2022/09/23 20:21:08;;;;;;;20.38;16.85;;;;;;;14.00;100.00;101221.03;5094492;28;20047;-72
2022/09/23 20:23:33;;;;;;;22.80;17.05;;;;;;;14.00;100.00;101213.69;5095473;28;20459;-73
2022/09/23 20:28:44;;;;;;;19.13;15.90;;;;;;;14.00;100.00;101212.88;5095834;28;20386;-71
2022/09/23 20:31:11;;;;;;;18.63;16.35;;;;;;;13.98;100.00;101210.38;5079995;28;20029;-73
2022/09/23 20:33:37;;;;;;;18.77;16.40;;;;;;;13.96;100.00;101204.34;5077448;28;20554;-73
2022/09/23 20:36:04;;;;;;;21.17;16.58;;;;;;;13.94;100.00;101211.91;5084300;28;20078;-71
2022/09/23 20:38:30;;;;;;;19.88;16.13;;;;;;;13.94;100.00;101211.09;5074925;28;20097;-71
2022/09/23 20:40:57;;;;;;;19.30;15.55;;;;;;;13.92;100.00;101203.19;5089921;28;20573;-72
2022/09/23 20:43:23;;;;;;;18.23;15.88;;;;;;;13.91;100.00;101206.13;5094008;28;20161;-73
2022/09/23 20:45:53;;;;;;;20.42;14.98;;;;;;;13.89;100.00;101205.53;5083569;28;20169;-74
2022/09/23 20:48:22;;;;;;;19.75;14.50;;;;;;;13.85;100.00;101205.19;5077921;28;20027;-72
2022/09/23 20:50:52;;;;;;;20.83;14.20;;;;;;;13.81;100.00;101193.97;5088498;28;20028;-71
2022/09/23 20:53:17;;;;;;;16.58;14.07;;;;;;;13.81;100.00;101196.69;5094604;28;20054;-72
2022/09/23 20:55:53;;;;;;;16.75;13.30;;;;;;;13.77;100.00;101198.22;5094945;28;20115;-71
2022/09/23 20:58:25;;;;;;;19.00;13.57;;;;;;;13.75;100.00;101191.34;5086340;28;20078;-71
2022/09/23 21:00:51;;;;;;;16.23;12.55;;;;;;;13.71;100.00;101192.88;5083632;28;20115;-72
2022/09/23 21:03:17;;;;;;;14.70;12.48;;;;;;;13.69;100.00;101189.59;5093965;28;20522;-71
2022/09/23 21:05:44;;;;;;;16.73;12.13;;;;;;;13.67;100.00;101189.00;5095260;28;20080;-72
2022/09/23 21:08:09;;;;;;;16.83;11.27;;;;;;;13.64;100.00;101188.41;5093884;28;20036;-71
2022/09/23 21:10:35;;;;;;;13.73;11.85;;;;;;;13.61;100.00;101188.06;5080864;28;20075;-72
2022/09/23 21:13:03;;;;;;;12.63;11.02;;;;;;;13.56;100.00;101188.78;5080060;28;20073;-70
2022/09/23 21:15:28;;;;;;;12.32;11.02;;;;;;;13.51;100.00;101188.63;5085359;28;20031;-70
2022/09/23 21:17:55;;;;;;;14.90;11.80;;;;;;;13.47;100.00;101195.63;5074113;28;20032;-72
2022/09/23 21:20:21;;;;;;;15.82;11.32;;;;;;;13.45;100.00;101190.44;5073754;28;20094;-72
2022/09/23 21:22:50;;;;;;;13.25;11.10;;;;;;;13.43;100.00;101195.25;5074248;28;20082;-72
2022/09/23 21:25:15;;;;;;;15.75;11.35;;;;;;;13.41;100.00;101188.41;5073989;28;20035;-71
2022/09/23 21:27:41;;;;;;;15.98;10.95;;;;;;;13.38;100.00;101197.88;5074474;28;20024;-71
2022/09/23 21:30:07;;;;;;;15.30;11.13;;;;;;;13.35;100.00;101194.81;5079977;28;20016;-73
2022/09/23 21:32:32;;;;;;;14.52;10.82;;;;;;;13.33;100.00;101195.00;5076919;28;20109;-73
2022/09/23 21:34:58;;;;;;;12.13;10.82;;;;;;;13.32;100.00;101189.81;5080821;28;20024;-73
2022/09/23 21:37:24;;;;;;;14.18;10.40;;;;;;;13.33;100.00;101188.72;5085584;28;20043;-74
2022/09/23 21:40:54;;;;;;;12.65;11.35;;;;;;;13.29;100.00;101181.03;5093943;28;20116;-71
2022/09/23 21:42:34;;;;;;;13.57;10.88;;;;;;;13.28;100.00;101192.97;5093476;28;20039;-72
2022/09/23 21:45:01;;;;;;;14.77;10.73;;;;;;;13.27;100.00;101187.75;5091467;28;20024;-70
2022/09/23 21:47:28;;;;;;;14.98;11.80;;;;;;;13.27;100.00;101187.75;5085573;28;20028;-71
2022/09/23 21:49:53;;;;;;;16.30;11.95;;;;;;;13.25;100.00;101196.16;5072275;28;20036;-71
2022/09/23 21:52:18;;;;;;;13.30;11.45;;;;;;;13.26;100.00;101197.00;5073666;28;20024;-71
2022/09/23 21:54:45;;;;;;;13.52;11.73;;;;;;;13.23;100.00;101192.84;5072529;28;20025;-71
2022/09/23 21:57:11;;;;;;;14.63;11.95;;;;;;;13.18;100.00;101189.16;5092209;28;20028;-72
2022/09/23 21:59:36;;;;;;;14.07;11.63;;;;;;;13.16;100.00;101194.84;5092489;28;20354;-72
2022/09/23 22:02:01;;;;;;;14.70;12.00;;;;;;;13.15;100.00;101195.91;5091487;28;20032;-70
2022/09/23 22:04:27;;;;;;;12.75;11.02;;;;;;;13.13;100.00;101192.59;5092593;28;20020;-71
2022/09/23 22:06:52;;;;;;;14.48;11.82;;;;;;;13.10;100.00;101187.63;5092697;28;20105;-72
2022/09/23 22:09:20;;;;;;;15.82;11.90;;;;;;;13.07;100.00;101188.09;5075638;28;20361;-72
2022/09/23 22:12:04;;;;;;;16.33;11.73;;;;;;;13.05;100.00;101184.78;5094143;28;20119;-71
2022/09/23 22:14:30;;;;;;;13.10;10.82;;;;;;;13.03;100.00;101192.31;5093583;28;20439;-72
2022/09/23 22:16:58;;;;;;;14.35;11.98;;;;;;;13.03;100.00;101186.91;5078958;28;20108;-71
2022/09/23 22:19:25;;;;;;;13.07;11.68;;;;;;;13.03;100.00;101182.31;5072560;28;20024;-71
2022/09/23 22:21:52;;;;;;;13.57;11.70;;;;;;;13.04;100.00;101188.56;5073415;28;20059;-72
2022/09/23 22:24:18;;;;;;;13.52;10.85;;;;;;;13.06;100.00;101184.56;5071762;28;20020;-72
2022/09/23 22:26:43;;;;;;;12.55;11.00;;;;;;;13.04;100.00;101178.50;5088449;28;20035;-72
2022/09/23 22:34:44;;;;;;;15.68;11.75;;;;;;;13.06;100.00;101178.31;5072955;28;20055;-73
2022/09/23 22:37:10;;;;;;;13.48;12.07;;;;;;;13.05;100.00;101185.59;5071598;28;20040;-73
2022/09/23 22:39:35;;;;;;;13.18;11.77;;;;;;;13.05;100.00;101180.19;5072387;28;20425;-71
2022/09/23 22:42:02;;;;;;;14.13;11.95;;;;;;;13.06;100.00;101181.03;5072733;28;20529;-71
2022/09/23 22:44:28;;;;;;;14.05;12.35;;;;;;;13.09;100.00;101183.28;5072047;28;20058;-72
2022/09/23 22:46:53;;;;;;;15.13;12.68;;;;;;;13.09;100.00;101175.13;5071081;28;20109;-71
2022/09/23 22:49:19;;;;;;;14.70;12.05;;;;;;;13.10;100.00;101176.75;5072393;28;20032;-71
2022/09/23 22:51:45;;;;;;;15.10;12.45;;;;;;;13.08;100.00;101178.91;5072553;28;20024;-72
2022/09/23 22:54:10;;;;;;;14.18;12.43;;;;;;;13.10;100.00;101179.47;5072836;28;20047;-73
2022/09/23 22:56:36;;;;;;;14.43;11.85;;;;;;;13.07;100.00;101171.78;5086319;28;20127;-74
2022/09/23 22:59:03;;;;;;;13.63;12.13;;;;;;;13.08;100.00;101171.56;5084570;28;20020;-73
2022/09/23 23:01:30;;;;;;;15.95;12.60;;;;;;;13.10;100.00;101165.88;5070012;28;20078;-71
2022/09/23 23:04:02;;;;;;;15.93;12.93;;;;;;;13.09;100.00;101170.50;5072438;28;20410;-71